createdAt,value
2022-12-04T00:00:35.474Z,100692.19
2022-12-04T00:03:19.269Z,100693.56
2022-12-04T00:05:47.131Z,100692.94
2022-12-04T00:08:17.032Z,100687.50
2022-12-04T00:10:44.388Z,100687.28
2022-12-04T00:13:12.023Z,100693.16
2022-12-04T00:15:42.279Z,100684.22
2022-12-04T00:18:10.243Z,100679.44
2022-12-04T00:20:39.734Z,100674.25
2022-12-04T00:23:07.667Z,100677.75
2022-12-04T00:25:40.975Z,100687.63
2022-12-04T00:28:09.970Z,100689.63
2022-12-04T00:30:41.122Z,100691.31
2022-12-04T00:33:08.906Z,100675.19
2022-12-04T00:35:36.155Z,100673.50
2022-12-04T00:38:04.025Z,100664.50
2022-12-04T00:40:31.477Z,100678.38
2022-12-04T00:43:00.748Z,100677.41
2022-12-04T00:45:28.102Z,100670.13
2022-12-04T00:47:56.197Z,100688.78
2022-12-04T00:50:23.600Z,100673.28
2022-12-04T00:52:51.407Z,100660.66
2022-12-04T00:55:19.342Z,100670.22
2022-12-04T00:57:47.304Z,100662.06
2022-12-04T01:00:16.966Z,100646.44
2022-12-04T01:02:45.065Z,100659.31
2022-12-04T01:05:13.063Z,100654.09
2022-12-04T01:07:41.103Z,100667.25
2022-12-04T01:10:12.254Z,100650.72
2022-12-04T01:12:40.179Z,100655.81
2022-12-04T01:15:08.556Z,100657.59
2022-12-04T01:17:38.075Z,100661.50
2022-12-04T01:20:06.555Z,100651.56
2022-12-04T01:22:34.182Z,100655.06
2022-12-04T01:25:01.681Z,100651.97
2022-12-04T01:27:29.454Z,100641.56
2022-12-04T01:29:57.063Z,100638.59
2022-12-04T01:32:25.465Z,100640.41
2022-12-04T01:34:54.201Z,100647.63
2022-12-04T01:37:21.933Z,100647.94
2022-12-04T01:39:49.275Z,100645.41
2022-12-04T01:42:16.988Z,100642.31
2022-12-04T01:45:05.142Z,100635.22
2022-12-04T01:47:32.868Z,100649.41
2022-12-04T01:50:01.984Z,100641.84
2022-12-04T01:52:29.800Z,100648.09
2022-12-04T01:55:00.812Z,100645.44
2022-12-04T01:57:32.531Z,100642.34
2022-12-04T02:00:05.050Z,100635.56
2022-12-04T02:02:33.849Z,100636.75
2022-12-04T02:05:05.854Z,100635.38
2022-12-04T02:07:34.053Z,100631.97
2022-12-04T02:10:01.697Z,100633.38
2022-12-04T02:12:37.222Z,100626.19
2022-12-04T02:15:11.930Z,100636.50
2022-12-04T02:17:47.735Z,100635.00
2022-12-04T02:20:27.105Z,100625.56
2022-12-04T02:23:40.379Z,100631.50
2022-12-04T02:26:26.573Z,100635.94
2022-12-04T02:29:01.776Z,100631.72
2022-12-04T02:31:33.935Z,100624.94
2022-12-04T02:34:07.403Z,100625.03
2022-12-04T02:36:41.747Z,100616.13
2022-12-04T02:39:18.192Z,100621.31
2022-12-04T02:41:54.333Z,100616.63
2022-12-04T02:44:28.828Z,100607.50
2022-12-04T02:46:59.468Z,100616.13
2022-12-04T02:49:33.228Z,100609.00
2022-12-04T02:52:03.140Z,100621.47
2022-12-04T02:54:34.879Z,100616.50
2022-12-04T02:57:06.405Z,100623.97
2022-12-04T02:59:38.018Z,100621.84
2022-12-04T03:02:10.695Z,100624.25
2022-12-04T03:04:41.122Z,100623.97
2022-12-04T03:07:14.939Z,100626.94
2022-12-04T03:09:47.142Z,100613.38
2022-12-04T03:12:20.478Z,100607.72
2022-12-04T03:14:57.482Z,100618.75
2022-12-04T03:17:31.022Z,100621.59
2022-12-04T03:20:02.535Z,100625.94
2022-12-04T03:22:34.424Z,100625.25
2022-12-04T03:25:05.038Z,100622.94
2022-12-04T03:27:39.819Z,100628.31
2022-12-04T03:30:12.350Z,100623.09
2022-12-04T03:32:46.824Z,100621.19
2022-12-04T03:35:19.162Z,100619.31
2022-12-04T03:37:55.199Z,100624.09
2022-12-04T03:40:26.895Z,100619.00
2022-12-04T03:43:02.238Z,100619.22
2022-12-04T03:45:39.804Z,100619.81
2022-12-04T03:48:18.163Z,100616.31
2022-12-04T03:50:57.062Z,100614.13
2022-12-04T03:53:31.064Z,100607.06
2022-12-04T03:56:07.618Z,100608.13
2022-12-04T03:58:38.347Z,100606.53
2022-12-04T04:01:10.044Z,100611.84
2022-12-04T04:03:43.471Z,100615.16
2022-12-04T04:06:16.445Z,100610.16
2022-12-04T04:08:48.755Z,100604.44
2022-12-04T04:11:22.130Z,100611.19
2022-12-04T04:13:52.441Z,100598.78
2022-12-04T04:16:23.331Z,100605.63
2022-12-04T04:18:52.502Z,100602.63
2022-12-04T04:21:27.547Z,100607.88
2022-12-04T04:23:55.366Z,100608.84
2022-12-04T04:26:26.761Z,100610.88
2022-12-04T04:28:54.094Z,100612.91
2022-12-04T04:31:30.586Z,100610.34
2022-12-04T04:34:04.800Z,100616.88
2022-12-04T04:36:39.914Z,100614.59
2022-12-04T04:39:15.683Z,100610.50
2022-12-04T04:41:48.694Z,100609.16
2022-12-04T04:44:20.563Z,100604.13
2022-12-04T04:46:54.530Z,100607.84
2022-12-04T04:49:25.940Z,100610.16
2022-12-04T04:51:54.740Z,100604.56
2022-12-04T04:54:23.009Z,100607.50
2022-12-04T04:56:51.061Z,100607.69
2022-12-04T04:59:21.474Z,100609.41
2022-12-04T05:01:50.814Z,100602.38
2022-12-04T05:04:18.202Z,100606.31
2022-12-04T05:06:46.368Z,100610.50
2022-12-04T05:09:13.671Z,100601.31
2022-12-04T05:11:42.515Z,100597.44
2022-12-04T05:14:09.860Z,100598.34
2022-12-04T05:16:39.129Z,100599.47
2022-12-04T05:19:07.862Z,100596.97
2022-12-04T05:21:35.659Z,100598.00
2022-12-04T05:24:03.062Z,100592.81
2022-12-04T05:26:30.614Z,100595.59
2022-12-04T05:28:57.975Z,100592.28
2022-12-04T05:31:25.824Z,100596.00
2022-12-04T05:33:53.057Z,100597.94
2022-12-04T05:36:22.331Z,100602.16
2022-12-04T05:38:49.691Z,100604.78
2022-12-04T05:41:17.519Z,100592.78
2022-12-04T05:43:44.907Z,100598.31
2022-12-04T05:46:12.543Z,100594.00
2022-12-04T05:48:39.916Z,100605.28
2022-12-04T05:51:08.734Z,100598.50
2022-12-04T05:53:38.498Z,100603.97
2022-12-04T05:56:07.619Z,100591.97
2022-12-04T05:58:35.936Z,100594.53
2022-12-04T06:01:09.422Z,100604.06
2022-12-04T06:03:36.904Z,100608.50
2022-12-04T06:06:05.151Z,100608.59
2022-12-04T06:08:32.506Z,100611.16
2022-12-04T06:11:03.142Z,100612.75
2022-12-04T06:13:30.422Z,100605.09
2022-12-04T06:15:58.627Z,100610.41
2022-12-04T06:18:25.984Z,100608.03
2022-12-04T06:20:57.853Z,100607.19
2022-12-04T06:23:25.201Z,100608.88
2022-12-04T06:25:52.831Z,100605.09
2022-12-04T06:28:21.666Z,100604.44
2022-12-04T06:30:49.862Z,100604.22
2022-12-04T06:33:17.117Z,100605.81
2022-12-04T06:35:45.212Z,100614.97
2022-12-04T06:38:12.629Z,100620.16
2022-12-04T06:40:40.907Z,100620.47
2022-12-04T06:43:08.145Z,100620.72
2022-12-04T06:45:37.338Z,100621.13
2022-12-04T06:48:05.021Z,100608.53
2022-12-04T06:50:32.991Z,100613.66
2022-12-04T06:53:03.566Z,100620.66
2022-12-04T06:55:35.668Z,100612.41
2022-12-04T06:58:02.867Z,100615.06
2022-12-04T07:00:31.215Z,100617.28
2022-12-04T07:02:59.998Z,100616.84
2022-12-04T07:05:27.877Z,100619.84
2022-12-04T07:07:55.353Z,100613.69
2022-12-04T07:10:23.334Z,100615.56
2022-12-04T07:12:50.606Z,100602.53
2022-12-04T07:15:18.325Z,100614.34
2022-12-04T07:17:45.572Z,100609.59
2022-12-04T07:20:15.667Z,100620.28
2022-12-04T07:22:43.507Z,100624.00
2022-12-04T07:25:11.261Z,100615.03
2022-12-04T07:27:46.851Z,100616.00
2022-12-04T07:30:16.063Z,100625.09
2022-12-04T07:32:43.606Z,100615.56
2022-12-04T07:35:13.124Z,100617.38
2022-12-04T07:37:41.812Z,100620.38
2022-12-04T07:40:10.672Z,100620.81
2022-12-04T07:42:37.941Z,100619.59
2022-12-04T07:45:06.702Z,100628.09
2022-12-04T07:47:35.433Z,100642.19
2022-12-04T07:50:03.446Z,100641.47
2022-12-04T07:52:31.101Z,100631.41
2022-12-04T07:55:00.631Z,100631.56
2022-12-04T07:57:28.459Z,100637.97
2022-12-04T07:59:56.626Z,100635.31
2022-12-04T08:02:24.149Z,100637.00
2022-12-04T08:04:52.292Z,100630.13
2022-12-04T08:07:19.896Z,100617.38
2022-12-04T08:09:47.914Z,100617.59
2022-12-04T08:12:16.812Z,100620.66
2022-12-04T08:14:44.845Z,100622.50
2022-12-04T08:17:12.589Z,100625.03
2022-12-04T08:19:40.736Z,100632.34
2022-12-04T08:22:08.052Z,100644.75
2022-12-04T08:24:36.190Z,100640.63
2022-12-04T08:27:04.240Z,100646.16
2022-12-04T08:29:33.499Z,100642.53
2022-12-04T08:32:03.851Z,100637.84
2022-12-04T08:34:32.517Z,100639.13
2022-12-04T08:37:01.455Z,100646.47
2022-12-04T08:39:29.355Z,100648.56
2022-12-04T08:41:58.564Z,100647.72
2022-12-04T08:44:26.307Z,100640.09
2022-12-04T08:46:55.041Z,100655.06
2022-12-04T08:49:22.876Z,100656.66
2022-12-04T08:51:50.156Z,100660.88
2022-12-04T08:54:17.840Z,100663.13
2022-12-04T08:56:47.740Z,100672.88
2022-12-04T08:59:15.511Z,100665.03
2022-12-04T09:01:42.955Z,100657.69
2022-12-04T09:04:12.281Z,100656.13
2022-12-04T09:06:39.700Z,100661.22
2022-12-04T09:09:07.823Z,100658.88
2022-12-04T09:11:35.296Z,100657.88
2022-12-04T09:14:03.428Z,100653.22
2022-12-04T09:16:31.228Z,100648.94
2022-12-04T09:18:59.155Z,100636.63
2022-12-04T09:21:28.425Z,100640.56
2022-12-04T09:23:56.130Z,100640.25
2022-12-04T09:26:25.836Z,100630.47
2022-12-04T09:28:54.951Z,100637.94
2022-12-04T09:31:23.443Z,100636.22
2022-12-04T09:33:52.178Z,100643.34
2022-12-04T09:36:20.479Z,100631.88
2022-12-04T09:38:51.623Z,100634.75
2022-12-04T09:41:59.364Z,100646.00
2022-12-04T09:44:31.788Z,100642.75
2022-12-04T09:47:02.298Z,100641.44
2022-12-04T09:49:37.241Z,100630.22
2022-12-04T09:52:22.175Z,100625.41
2022-12-04T09:54:51.775Z,100619.31
2022-12-04T09:57:25.838Z,100605.50
2022-12-04T09:59:54.772Z,100618.44
2022-12-04T10:02:37.477Z,100619.47
2022-12-04T10:05:12.156Z,100615.50
2022-12-04T10:07:46.944Z,100601.72
2022-12-04T10:10:25.112Z,100599.91
2022-12-04T10:13:01.696Z,100596.88
2022-12-04T10:15:35.261Z,100599.16
2022-12-04T10:18:19.431Z,100602.78
2022-12-04T10:21:02.286Z,100606.84
2022-12-04T10:23:47.464Z,100608.53
2022-12-04T10:26:19.265Z,100603.06
2022-12-04T10:28:55.428Z,100600.53
2022-12-04T10:31:26.532Z,100604.81
2022-12-04T10:33:57.147Z,100595.28
2022-12-04T10:36:31.717Z,100607.88
2022-12-04T10:39:02.570Z,100599.88
2022-12-04T10:41:40.981Z,100597.88
2022-12-04T10:44:15.715Z,100592.75
2022-12-04T10:46:46.279Z,100579.69
2022-12-04T10:49:18.884Z,100568.94
2022-12-04T10:51:47.582Z,100567.88
2022-12-04T10:54:20.509Z,100567.28
2022-12-04T10:56:54.461Z,100578.28
2022-12-04T10:59:22.089Z,100567.75
2022-12-04T11:01:52.410Z,100569.66
2022-12-04T11:04:24.384Z,100566.91
2022-12-04T11:07:00.134Z,100565.13
2022-12-04T11:09:27.979Z,100558.31
2022-12-04T11:12:06.383Z,100571.47
2022-12-04T11:14:33.831Z,100578.66
2022-12-04T11:17:06.446Z,100569.50
2022-12-04T11:19:35.995Z,100566.66
2022-12-04T11:22:15.343Z,100559.81
2022-12-04T11:24:49.604Z,100553.13
2022-12-04T11:27:24.056Z,100548.69
2022-12-04T11:29:51.959Z,100556.63
2022-12-04T11:32:23.345Z,100560.59
2022-12-04T11:34:52.204Z,100558.56
2022-12-04T11:37:23.006Z,100550.28
2022-12-04T11:39:52.282Z,100550.31
2022-12-04T11:42:25.424Z,100554.16
2022-12-04T11:44:54.390Z,100542.25
2022-12-04T11:47:24.755Z,100538.50
2022-12-04T11:50:01.948Z,100534.81
2022-12-04T11:52:42.650Z,100542.81
2022-12-04T11:55:17.857Z,100541.22
2022-12-04T11:57:51.882Z,100544.69
2022-12-04T12:00:21.889Z,100545.53
2022-12-04T12:03:02.311Z,100539.53
2022-12-04T12:05:50.733Z,100539.38
2022-12-04T12:08:29.194Z,100551.56
2022-12-04T12:11:04.815Z,100555.06
2022-12-04T12:13:48.699Z,100553.25
2022-12-04T12:16:25.032Z,100547.09
2022-12-04T12:19:05.209Z,100553.13
2022-12-04T12:21:39.617Z,100554.75
2022-12-04T12:24:23.751Z,100553.69
2022-12-04T12:27:00.141Z,100551.94
2022-12-04T12:29:43.881Z,100553.56
2022-12-04T12:32:23.314Z,100542.44
2022-12-04T12:34:52.565Z,100550.00
2022-12-04T12:37:26.199Z,100554.72
2022-12-04T12:40:00.120Z,100549.34
2022-12-04T12:42:32.857Z,100537.31
2022-12-04T12:45:06.842Z,100532.38
2022-12-04T12:47:40.524Z,100534.56
2022-12-04T12:50:15.646Z,100527.50
2022-12-04T12:52:47.789Z,100522.03
2022-12-04T12:55:20.772Z,100520.47
2022-12-04T12:57:55.667Z,100508.03
2022-12-04T13:00:26.465Z,100510.72
2022-12-04T13:02:59.302Z,100513.03
2022-12-04T13:05:33.809Z,100507.50
2022-12-04T13:08:09.896Z,100502.72
2022-12-04T13:10:43.503Z,100511.41
2022-12-04T13:13:17.810Z,100501.28
2022-12-04T13:15:52.329Z,100497.34
2022-12-04T13:18:25.182Z,100498.84
2022-12-04T13:20:56.991Z,100505.16
2022-12-04T13:23:43.461Z,100493.38
2022-12-04T13:26:20.300Z,100492.78
2022-12-04T13:28:54.778Z,100498.31
2022-12-04T13:31:35.676Z,100502.06
2022-12-04T13:34:26.782Z,100499.25
2022-12-04T13:37:07.858Z,100512.19
2022-12-04T13:40:28.018Z,100508.81
2022-12-04T13:43:19.187Z,100510.09
2022-12-04T13:45:50.732Z,100508.19
2022-12-04T13:48:34.044Z,100515.19
2022-12-04T13:51:07.154Z,100523.22
2022-12-04T13:53:37.066Z,100523.22
2022-12-04T13:56:09.418Z,100522.09
2022-12-04T13:58:38.965Z,100515.63
2022-12-04T14:01:08.834Z,100516.38
2022-12-04T14:03:46.881Z,100510.63
2022-12-04T14:06:23.211Z,100521.84
2022-12-04T14:08:56.969Z,100516.06
2022-12-04T14:11:25.996Z,100510.94
2022-12-04T14:13:56.030Z,100517.25
2022-12-04T14:16:27.053Z,100520.31
2022-12-04T14:18:59.582Z,100522.59
2022-12-04T14:21:39.523Z,100518.88
2022-12-04T14:24:17.075Z,100528.88
2022-12-04T14:27:10.786Z,100523.34
2022-12-04T14:29:48.028Z,100522.97
2022-12-04T14:32:21.564Z,100517.41
2022-12-04T14:34:51.846Z,100520.16
2022-12-04T14:37:25.721Z,100527.78
2022-12-04T14:39:55.763Z,100529.09
2022-12-04T14:42:26.294Z,100524.72
2022-12-04T14:44:56.740Z,100526.75
2022-12-04T14:47:42.779Z,100537.63
2022-12-04T14:50:37.473Z,100534.00
2022-12-04T14:53:17.048Z,100534.25
2022-12-04T14:55:55.844Z,100536.63
2022-12-04T14:58:24.006Z,100540.22
2022-12-04T15:00:53.810Z,100536.84
2022-12-04T15:03:22.309Z,100535.63
2022-12-04T15:06:01.014Z,100533.81
2022-12-04T15:08:28.443Z,100533.09
2022-12-04T15:10:56.578Z,100538.72
2022-12-04T15:13:30.832Z,100539.75
2022-12-04T15:16:07.909Z,100549.78
2022-12-04T15:18:39.550Z,100555.03
2022-12-04T15:21:11.128Z,100548.75
2022-12-04T15:23:40.954Z,100546.44
2022-12-04T15:26:13.255Z,100540.28
2022-12-04T15:28:44.835Z,100548.06
2022-12-04T15:31:17.738Z,100543.97
2022-12-04T15:33:47.509Z,100544.00
2022-12-04T15:36:23.989Z,100540.81
2022-12-04T15:38:53.804Z,100543.72
2022-12-04T15:41:30.825Z,100532.31
2022-12-04T15:43:59.172Z,100546.94
2022-12-04T15:46:32.606Z,100544.75
2022-12-04T15:49:15.837Z,100547.09
2022-12-04T15:51:47.345Z,100548.66
2022-12-04T15:54:21.680Z,100542.63
2022-12-04T15:57:01.229Z,100539.56
2022-12-04T15:59:31.412Z,100540.81
2022-12-04T16:02:06.324Z,100539.75
2022-12-04T16:04:34.946Z,100531.41
2022-12-04T16:07:04.478Z,100540.31
2022-12-04T16:09:32.069Z,100535.13
2022-12-04T16:12:03.277Z,100531.31
2022-12-04T16:14:30.914Z,100527.41
2022-12-04T16:17:06.350Z,100534.50
2022-12-04T16:19:36.026Z,100528.38
2022-12-04T16:22:11.224Z,100539.19
2022-12-04T16:24:39.264Z,100536.22
2022-12-04T16:27:11.965Z,100554.16
2022-12-04T16:29:39.604Z,100556.50
2022-12-04T16:32:11.265Z,100556.38
2022-12-04T16:34:39.203Z,100560.84
2022-12-04T16:37:12.577Z,100560.56
2022-12-04T16:39:41.638Z,100564.56
2022-12-04T16:42:15.959Z,100563.84
2022-12-04T16:44:44.224Z,100558.94
2022-12-04T16:47:13.383Z,100561.53
2022-12-04T16:49:41.934Z,100571.78
2022-12-04T16:52:12.388Z,100558.84
2022-12-04T16:54:40.886Z,100574.22
2022-12-04T16:57:09.629Z,100562.03
2022-12-04T16:59:37.773Z,100578.69
2022-12-04T17:02:15.733Z,100558.09
2022-12-04T17:04:44.044Z,100560.56
2022-12-04T17:07:14.107Z,100564.47
2022-12-04T17:09:41.738Z,100569.13
2022-12-04T17:12:09.593Z,100563.59
2022-12-04T17:14:36.988Z,100572.75
2022-12-04T17:17:04.909Z,100563.81
2022-12-04T17:19:32.491Z,100565.63
2022-12-04T17:22:00.770Z,100565.72
2022-12-04T17:24:30.124Z,100561.59
2022-12-04T17:26:58.777Z,100556.28
2022-12-04T17:29:26.206Z,100565.09
2022-12-04T17:31:54.468Z,100569.22
2022-12-04T17:34:21.845Z,100570.38
2022-12-04T17:36:49.812Z,100569.56
2022-12-04T17:39:17.221Z,100557.56
2022-12-04T17:41:46.332Z,100571.56
2022-12-04T17:44:13.692Z,100564.25
2022-12-04T17:46:41.676Z,100573.56
2022-12-04T17:49:09.227Z,100576.97
2022-12-04T17:51:37.047Z,100567.50
2022-12-04T17:54:05.639Z,100573.34
2022-12-04T17:56:34.570Z,100559.69
2022-12-04T17:59:03.908Z,100562.75
2022-12-04T18:01:32.007Z,100563.91
2022-12-04T18:04:01.419Z,100557.13
2022-12-04T18:06:31.441Z,100557.75
2022-12-04T18:08:59.415Z,100554.66
2022-12-04T18:11:29.255Z,100549.81
2022-12-04T18:13:58.494Z,100556.16
2022-12-04T18:16:29.856Z,100559.47
2022-12-04T18:18:59.318Z,100553.72
2022-12-04T18:21:28.089Z,100552.25
2022-12-04T18:23:57.433Z,100551.69
2022-12-04T18:26:27.442Z,100554.88
2022-12-04T18:28:55.501Z,100541.59
2022-12-04T18:31:23.608Z,100537.25
2022-12-04T18:33:52.533Z,100549.00
2022-12-04T18:36:23.095Z,100547.28
2022-12-04T18:38:54.394Z,100542.09
2022-12-04T18:41:22.780Z,100540.09
2022-12-04T18:43:51.088Z,100532.88
2022-12-04T18:46:19.528Z,100530.56
2022-12-04T18:48:48.281Z,100534.66
2022-12-04T18:51:21.441Z,100535.66
2022-12-04T18:53:52.823Z,100537.91
2022-12-04T18:59:08.568Z,100529.31
2022-12-04T19:01:36.948Z,100532.50
2022-12-04T19:04:07.411Z,100533.59
2022-12-04T19:06:38.855Z,100526.91
2022-12-04T19:09:10.275Z,100527.44
2022-12-04T19:11:39.074Z,100532.13
2022-12-04T19:14:16.211Z,100537.00
2022-12-04T19:16:49.028Z,100540.72
2022-12-04T19:19:16.986Z,100544.84
2022-12-04T19:21:46.903Z,100553.66
2022-12-04T19:24:15.102Z,100549.53
2022-12-04T19:26:44.938Z,100556.28
2022-12-04T19:29:15.110Z,100556.00
2022-12-04T19:31:43.936Z,100553.09
2022-12-04T19:34:12.486Z,100552.97
2022-12-04T19:36:40.988Z,100547.88
2022-12-04T19:39:10.803Z,100543.44
2022-12-04T19:41:38.952Z,100558.94
2022-12-04T19:44:39.655Z,100558.69
2022-12-04T19:46:55.160Z,100566.31
2022-12-04T19:49:23.273Z,100562.97
2022-12-04T19:51:51.838Z,100572.31
2022-12-04T19:54:20.875Z,100560.66
2022-12-04T19:56:50.673Z,100563.69
2022-12-04T19:59:20.349Z,100566.97
2022-12-04T20:01:48.583Z,100566.31
2022-12-04T20:04:16.183Z,100563.47
2022-12-04T20:06:45.905Z,100567.75
2022-12-04T20:09:15.863Z,100557.25
2022-12-04T20:11:45.679Z,100559.47
2022-12-04T20:14:13.670Z,100553.41
2022-12-04T20:16:41.652Z,100570.09
2022-12-04T20:19:13.473Z,100575.19
2022-12-04T20:21:41.638Z,100577.59
2022-12-04T20:24:12.404Z,100572.19
2022-12-04T20:26:42.380Z,100565.53
2022-12-04T20:29:14.964Z,100579.00
2022-12-04T20:31:44.953Z,100577.00
2022-12-04T20:34:14.233Z,100578.34
2022-12-04T20:36:44.318Z,100586.19
2022-12-04T20:39:13.178Z,100583.75
2022-12-04T20:41:41.470Z,100589.06
2022-12-04T20:44:15.093Z,100576.13
2022-12-04T20:46:43.358Z,100575.28
2022-12-04T20:49:18.773Z,100571.91
2022-12-04T20:51:49.842Z,100565.09
2022-12-04T20:54:19.434Z,100565.66
2022-12-04T20:56:48.079Z,100558.19
2022-12-04T20:59:19.031Z,100553.22
2022-12-04T21:01:48.525Z,100559.28
2022-12-04T21:04:16.150Z,100555.88
2022-12-04T21:06:45.103Z,100565.75
2022-12-04T21:09:14.150Z,100567.00
2022-12-04T21:11:44.985Z,100558.53
2022-12-04T21:14:15.441Z,100553.84
2022-12-04T21:16:45.511Z,100563.00
2022-12-04T21:19:16.001Z,100559.16
2022-12-04T21:21:44.300Z,100560.97
2022-12-04T21:24:13.891Z,100543.25
2022-12-04T21:26:41.973Z,100545.16
2022-12-04T21:29:09.822Z,100549.63
2022-12-04T21:31:38.198Z,100547.72
2022-12-04T21:34:10.471Z,100549.72
2022-12-04T21:36:38.548Z,100539.84
2022-12-04T21:39:06.608Z,100536.34
2022-12-04T21:41:34.291Z,100545.69
2022-12-04T21:44:03.850Z,100544.22
2022-12-04T21:46:31.578Z,100547.94
2022-12-04T21:48:59.516Z,100531.91
2022-12-04T21:51:55.819Z,100539.44
2022-12-04T21:54:16.011Z,100529.69
2022-12-04T21:56:43.918Z,100531.41
2022-12-04T21:59:11.383Z,100543.25
2022-12-04T22:01:39.680Z,100533.50
2022-12-04T22:04:07.079Z,100533.19
2022-12-04T22:06:36.471Z,100526.91
2022-12-04T22:09:07.529Z,100520.66
2022-12-04T22:11:35.552Z,100533.59
2022-12-04T22:14:02.930Z,100535.75
2022-12-04T22:16:32.192Z,100531.47
2022-12-04T22:19:01.365Z,100527.47
2022-12-04T22:21:29.381Z,100519.00
2022-12-04T22:24:00.392Z,100506.88
2022-12-04T22:26:29.808Z,100514.66
2022-12-04T22:28:57.446Z,100526.28
2022-12-04T22:31:27.606Z,100515.16
2022-12-04T22:33:57.125Z,100530.97
2022-12-04T22:36:27.373Z,100516.34
2022-12-04T22:39:10.978Z,100509.97
2022-12-04T22:41:40.539Z,100501.69
2022-12-04T22:44:07.934Z,100509.00
2022-12-04T22:46:36.079Z,100496.81
2022-12-04T22:49:03.711Z,100498.28
2022-12-04T22:51:31.565Z,100494.88
2022-12-04T22:53:58.960Z,100499.56
2022-12-04T22:56:29.164Z,100500.59
2022-12-04T22:58:59.460Z,100508.34
2022-12-04T23:01:28.878Z,100503.53
2022-12-04T23:03:57.128Z,100497.91
2022-12-04T23:06:27.741Z,100504.59
2022-12-04T23:08:59.040Z,100502.78
2022-12-04T23:11:27.724Z,100491.84
2022-12-04T23:13:58.334Z,100496.31
2022-12-04T23:16:27.419Z,100503.94
2022-12-04T23:18:54.934Z,100494.25
2022-12-04T23:21:23.780Z,100497.75
2022-12-04T23:23:52.346Z,100501.28
2022-12-04T23:26:22.438Z,100496.31
2022-12-04T23:28:49.886Z,100489.25
2022-12-04T23:31:19.524Z,100496.09
2022-12-04T23:33:47.022Z,100494.00
2022-12-04T23:36:14.966Z,100493.09
2022-12-04T23:38:44.368Z,100492.06
2022-12-04T23:41:14.019Z,100500.66
2022-12-04T23:43:42.145Z,100500.09
2022-12-04T23:46:12.490Z,100501.78
2022-12-04T23:48:43.273Z,100496.31
2022-12-04T23:51:13.875Z,100489.31
2022-12-04T23:53:41.805Z,100479.13
2022-12-04T23:56:12.695Z,100480.00
2022-12-04T23:58:41.263Z,100493.50
